sensor_id;sensor_type;location;lat;lon;timestamp;temperature;humidity
79140;HTU21D;68546;59.142;37.948;2024-02-04T00:00:32;-0.79;64.24
79140;HTU21D;68546;59.142;37.948;2024-02-04T00:02:59;-0.77;64.25
79140;HTU21D;68546;59.142;37.948;2024-02-04T00:05:25;-0.75;64.27
79140;HTU21D;68546;59.142;37.948;2024-02-04T00:07:51;-0.74;64.28
79140;HTU21D;68546;59.142;37.948;2024-02-04T00:10:17;-0.75;64.24
79140;HTU21D;68546;59.142;37.948;2024-02-04T00:12:44;-0.73;64.27
79140;HTU21D;68546;59.142;37.948;2024-02-04T00:15:11;-0.72;64.30
79140;HTU21D;68546;59.142;37.948;2024-02-04T00:17:37;-0.71;64.34
79140;HTU21D;68546;59.142;37.948;2024-02-04T00:20:04;-0.70;64.26
79140;HTU21D;68546;59.142;37.948;2024-02-04T00:22:34;-0.68;64.21
79140;HTU21D;68546;59.142;37.948;2024-02-04T00:25:01;-0.68;64.13
79140;HTU21D;68546;59.142;37.948;2024-02-04T00:27:34;-0.68;64.19
79140;HTU21D;68546;59.142;37.948;2024-02-04T00:30:00;-0.68;64.18
79140;HTU21D;68546;59.142;37.948;2024-02-04T00:32:27;-0.67;64.20
79140;HTU21D;68546;59.142;37.948;2024-02-04T00:34:53;-0.67;64.24
79140;HTU21D;68546;59.142;37.948;2024-02-04T00:37:20;-0.67;64.27
79140;HTU21D;68546;59.142;37.948;2024-02-04T00:39:46;-0.66;64.24
79140;HTU21D;68546;59.142;37.948;2024-02-04T00:42:12;-0.65;64.34
79140;HTU21D;68546;59.142;37.948;2024-02-04T00:44:39;-0.64;64.43
79140;HTU21D;68546;59.142;37.948;2024-02-04T00:47:05;-0.62;64.53
79140;HTU21D;68546;59.142;37.948;2024-02-04T00:49:32;-0.60;64.59
79140;HTU21D;68546;59.142;37.948;2024-02-04T00:51:58;-0.58;64.64
79140;HTU21D;68546;59.142;37.948;2024-02-04T00:54:24;-0.57;64.63
79140;HTU21D;68546;59.142;37.948;2024-02-04T00:56:51;-0.54;64.59
79140;HTU21D;68546;59.142;37.948;2024-02-04T00:59:17;-0.53;64.63
79140;HTU21D;68546;59.142;37.948;2024-02-04T01:01:43;-0.52;64.65
79140;HTU21D;68546;59.142;37.948;2024-02-04T01:04:10;-0.49;64.65
79140;HTU21D;68546;59.142;37.948;2024-02-04T01:06:37;-0.49;64.58
79140;HTU21D;68546;59.142;37.948;2024-02-04T01:09:04;-0.46;64.51
79140;HTU21D;68546;59.142;37.948;2024-02-04T01:11:30;-0.47;64.43
79140;HTU21D;68546;59.142;37.948;2024-02-04T01:13:57;-0.45;64.38
79140;HTU21D;68546;59.142;37.948;2024-02-04T01:16:23;-0.45;64.34
79140;HTU21D;68546;59.142;37.948;2024-02-04T01:18:50;-0.45;64.34
79140;HTU21D;68546;59.142;37.948;2024-02-04T01:21:16;-0.43;64.40
79140;HTU21D;68546;59.142;37.948;2024-02-04T01:23:43;-0.44;64.44
79140;HTU21D;68546;59.142;37.948;2024-02-04T01:26:09;-0.41;64.42
79140;HTU21D;68546;59.142;37.948;2024-02-04T01:28:36;-0.40;64.35
79140;HTU21D;68546;59.142;37.948;2024-02-04T01:31:02;-0.40;64.28
79140;HTU21D;68546;59.142;37.948;2024-02-04T01:33:28;-0.41;64.19
79140;HTU21D;68546;59.142;37.948;2024-02-04T01:35:55;-0.40;64.17
79140;HTU21D;68546;59.142;37.948;2024-02-04T01:38:21;-0.40;64.14
79140;HTU21D;68546;59.142;37.948;2024-02-04T01:40:48;-0.41;64.08
79140;HTU21D;68546;59.142;37.948;2024-02-04T01:43:17;-0.42;64.04
79140;HTU21D;68546;59.142;37.948;2024-02-04T01:45:43;-0.41;64.02
79140;HTU21D;68546;59.142;37.948;2024-02-04T01:48:10;-0.41;64.01
79140;HTU21D;68546;59.142;37.948;2024-02-04T01:50:36;-0.41;63.97
79140;HTU21D;68546;59.142;37.948;2024-02-04T01:53:07;-0.41;63.98
79140;HTU21D;68546;59.142;37.948;2024-02-04T01:55:33;-0.40;63.94
79140;HTU21D;68546;59.142;37.948;2024-02-04T01:58:01;-0.40;63.93
79140;HTU21D;68546;59.142;37.948;2024-02-04T02:00:27;-0.40;63.94
79140;HTU21D;68546;59.142;37.948;2024-02-04T02:02:55;-0.41;63.92
79140;HTU21D;68546;59.142;37.948;2024-02-04T02:05:22;-0.40;63.92
79140;HTU21D;68546;59.142;37.948;2024-02-04T02:07:49;-0.39;63.88
79140;HTU21D;68546;59.142;37.948;2024-02-04T02:10:18;-0.40;63.82
79140;HTU21D;68546;59.142;37.948;2024-02-04T02:12:54;-0.39;63.85
79140;HTU21D;68546;59.142;37.948;2024-02-04T02:15:24;-0.38;63.83
79140;HTU21D;68546;59.142;37.948;2024-02-04T02:18:03;-0.39;63.84
79140;HTU21D;68546;59.142;37.948;2024-02-04T02:23:14;-0.39;63.65
79140;HTU21D;68546;59.142;37.948;2024-02-04T02:25:40;-0.39;63.52
79140;HTU21D;68546;59.142;37.948;2024-02-04T02:28:07;-0.39;63.44
79140;HTU21D;68546;59.142;37.948;2024-02-04T02:30:33;-0.40;63.31
79140;HTU21D;68546;59.142;37.948;2024-02-04T02:33:00;-0.41;63.19
79140;HTU21D;68546;59.142;37.948;2024-02-04T02:35:27;-0.42;63.03
79140;HTU21D;68546;59.142;37.948;2024-02-04T02:38:21;-0.44;62.91
79140;HTU21D;68546;59.142;37.948;2024-02-04T02:40:54;-0.49;62.74
79140;HTU21D;68546;59.142;37.948;2024-02-04T02:43:25;-0.51;62.61
79140;HTU21D;68546;59.142;37.948;2024-02-04T02:45:52;-0.54;62.61
79140;HTU21D;68546;59.142;37.948;2024-02-04T02:48:19;-0.56;62.63
79140;HTU21D;68546;59.142;37.948;2024-02-04T02:50:47;-0.57;62.62
79140;HTU21D;68546;59.142;37.948;2024-02-04T02:53:13;-0.59;62.63
79140;HTU21D;68546;59.142;37.948;2024-02-04T02:55:40;-0.60;62.67
79140;HTU21D;68546;59.142;37.948;2024-02-04T02:58:07;-0.62;62.62
79140;HTU21D;68546;59.142;37.948;2024-02-04T03:00:33;-0.61;62.64
79140;HTU21D;68546;59.142;37.948;2024-02-04T03:03:00;-0.62;62.73
79140;HTU21D;68546;59.142;37.948;2024-02-04T03:05:26;-0.64;62.79
79140;HTU21D;68546;59.142;37.948;2024-02-04T03:07:52;-0.62;62.79
79140;HTU21D;68546;59.142;37.948;2024-02-04T03:10:19;-0.62;62.76
79140;HTU21D;68546;59.142;37.948;2024-02-04T03:12:45;-0.62;62.72
79140;HTU21D;68546;59.142;37.948;2024-02-04T03:15:12;-0.61;62.76
79140;HTU21D;68546;59.142;37.948;2024-02-04T03:17:38;-0.61;62.75
79140;HTU21D;68546;59.142;37.948;2024-02-04T03:20:05;-0.60;62.75
79140;HTU21D;68546;59.142;37.948;2024-02-04T03:22:31;-0.61;62.73
79140;HTU21D;68546;59.142;37.948;2024-02-04T03:24:57;-0.61;62.69
79140;HTU21D;68546;59.142;37.948;2024-02-04T03:27:24;-0.60;62.68
79140;HTU21D;68546;59.142;37.948;2024-02-04T03:29:50;-0.60;62.63
79140;HTU21D;68546;59.142;37.948;2024-02-04T03:32:17;-0.61;62.62
79140;HTU21D;68546;59.142;37.948;2024-02-04T03:34:44;-0.60;62.60
79140;HTU21D;68546;59.142;37.948;2024-02-04T03:37:11;-0.59;62.56
79140;HTU21D;68546;59.142;37.948;2024-02-04T03:39:37;-0.60;62.50
79140;HTU21D;68546;59.142;37.948;2024-02-04T03:42:04;-0.60;62.45
79140;HTU21D;68546;59.142;37.948;2024-02-04T03:44:30;-0.60;62.40
79140;HTU21D;68546;59.142;37.948;2024-02-04T03:46:57;-0.61;62.38
79140;HTU21D;68546;59.142;37.948;2024-02-04T03:49:23;-0.62;62.28
79140;HTU21D;68546;59.142;37.948;2024-02-04T03:51:49;-0.64;62.29
79140;HTU21D;68546;59.142;37.948;2024-02-04T03:54:16;-0.64;62.32
79140;HTU21D;68546;59.142;37.948;2024-02-04T03:56:45;-0.64;62.36
79140;HTU21D;68546;59.142;37.948;2024-02-04T03:59:11;-0.65;62.34
79140;HTU21D;68546;59.142;37.948;2024-02-04T04:01:38;-0.62;62.36
79140;HTU21D;68546;59.142;37.948;2024-02-04T04:04:04;-0.64;62.29
79140;HTU21D;68546;59.142;37.948;2024-02-04T04:06:30;-0.64;62.22
79140;HTU21D;68546;59.142;37.948;2024-02-04T04:08:57;-0.62;62.24
79140;HTU21D;68546;59.142;37.948;2024-02-04T04:11:25;-0.64;62.28
79140;HTU21D;68546;59.142;37.948;2024-02-04T04:13:51;-0.62;62.28
79140;HTU21D;68546;59.142;37.948;2024-02-04T04:16:21;-0.61;62.27
79140;HTU21D;68546;59.142;37.948;2024-02-04T04:18:48;-0.62;62.26
79140;HTU21D;68546;59.142;37.948;2024-02-04T04:21:15;-0.62;62.18
79140;HTU21D;68546;59.142;37.948;2024-02-04T04:23:42;-0.64;62.07
79140;HTU21D;68546;59.142;37.948;2024-02-04T04:26:08;-0.64;61.96
79140;HTU21D;68546;59.142;37.948;2024-02-04T04:28:34;-0.64;62.00
79140;HTU21D;68546;59.142;37.948;2024-02-04T04:31:01;-0.66;62.01
79140;HTU21D;68546;59.142;37.948;2024-02-04T04:33:27;-0.66;62.01
79140;HTU21D;68546;59.142;37.948;2024-02-04T04:35:53;-0.66;62.00
79140;HTU21D;68546;59.142;37.948;2024-02-04T04:38:20;-0.67;61.99
79140;HTU21D;68546;59.142;37.948;2024-02-04T04:40:46;-0.68;62.00
79140;HTU21D;68546;59.142;37.948;2024-02-04T04:43:13;-0.70;61.99
79140;HTU21D;68546;59.142;37.948;2024-02-04T04:45:40;-0.69;62.03
79140;HTU21D;68546;59.142;37.948;2024-02-04T04:48:07;-0.69;62.04
79140;HTU21D;68546;59.142;37.948;2024-02-04T04:50:36;-0.70;62.04
79140;HTU21D;68546;59.142;37.948;2024-02-04T04:53:03;-0.69;62.10
79140;HTU21D;68546;59.142;37.948;2024-02-04T04:55:29;-0.70;62.14
79140;HTU21D;68546;59.142;37.948;2024-02-04T04:57:55;-0.70;62.11
79140;HTU21D;68546;59.142;37.948;2024-02-04T05:00:23;-0.69;62.06
79140;HTU21D;68546;59.142;37.948;2024-02-04T05:02:49;-0.69;62.05
79140;HTU21D;68546;59.142;37.948;2024-02-04T05:05:16;-0.71;62.04
79140;HTU21D;68546;59.142;37.948;2024-02-04T05:07:42;-0.71;61.96
79140;HTU21D;68546;59.142;37.948;2024-02-04T05:10:08;-0.73;61.88
79140;HTU21D;68546;59.142;37.948;2024-02-04T05:12:38;-0.73;61.87
79140;HTU21D;68546;59.142;37.948;2024-02-04T05:15:05;-0.74;61.92
79140;HTU21D;68546;59.142;37.948;2024-02-04T05:17:31;-0.76;61.94
79140;HTU21D;68546;59.142;37.948;2024-02-04T05:19:59;-0.77;61.88
79140;HTU21D;68546;59.142;37.948;2024-02-04T05:22:25;-0.77;61.86
79140;HTU21D;68546;59.142;37.948;2024-02-04T05:24:52;-0.81;61.90
79140;HTU21D;68546;59.142;37.948;2024-02-04T05:27:18;-0.81;61.95
79140;HTU21D;68546;59.142;37.948;2024-02-04T05:29:44;-0.81;61.95
79140;HTU21D;68546;59.142;37.948;2024-02-04T05:32:11;-0.81;62.00
79140;HTU21D;68546;59.142;37.948;2024-02-04T05:34:38;-0.83;61.99
79140;HTU21D;68546;59.142;37.948;2024-02-04T05:37:04;-0.83;62.05
79140;HTU21D;68546;59.142;37.948;2024-02-04T05:39:30;-0.82;62.18
79140;HTU21D;68546;59.142;37.948;2024-02-04T05:41:56;-0.82;62.08
79140;HTU21D;68546;59.142;37.948;2024-02-04T05:44:23;-0.82;62.03
79140;HTU21D;68546;59.142;37.948;2024-02-04T05:46:49;-0.82;62.02
79140;HTU21D;68546;59.142;37.948;2024-02-04T05:49:15;-0.82;62.00
79140;HTU21D;68546;59.142;37.948;2024-02-04T05:51:43;-0.82;61.96
79140;HTU21D;68546;59.142;37.948;2024-02-04T05:54:09;-0.84;61.94
79140;HTU21D;68546;59.142;37.948;2024-02-04T05:56:36;-0.85;61.84
79140;HTU21D;68546;59.142;37.948;2024-02-04T05:59:02;-0.85;61.89
79140;HTU21D;68546;59.142;37.948;2024-02-04T06:01:29;-0.85;61.92
79140;HTU21D;68546;59.142;37.948;2024-02-04T06:03:55;-0.86;61.98
79140;HTU21D;68546;59.142;37.948;2024-02-04T06:06:21;-0.85;62.03
79140;HTU21D;68546;59.142;37.948;2024-02-04T06:08:48;-0.85;62.03
79140;HTU21D;68546;59.142;37.948;2024-02-04T06:11:15;-0.84;62.02
79140;HTU21D;68546;59.142;37.948;2024-02-04T06:13:43;-0.84;62.01
79140;HTU21D;68546;59.142;37.948;2024-02-04T06:16:10;-0.84;62.05
79140;HTU21D;68546;59.142;37.948;2024-02-04T06:18:41;-0.83;62.01
79140;HTU21D;68546;59.142;37.948;2024-02-04T06:21:07;-0.83;62.05
79140;HTU21D;68546;59.142;37.948;2024-02-04T06:23:34;-0.82;62.12
79140;HTU21D;68546;59.142;37.948;2024-02-04T06:26:01;-0.79;62.17
79140;HTU21D;68546;59.142;37.948;2024-02-04T06:28:27;-0.80;62.16
79140;HTU21D;68546;59.142;37.948;2024-02-04T06:30:54;-0.77;62.21
79140;HTU21D;68546;59.142;37.948;2024-02-04T06:33:20;-0.76;62.15
79140;HTU21D;68546;59.142;37.948;2024-02-04T06:35:48;-0.74;62.15
79140;HTU21D;68546;59.142;37.948;2024-02-04T06:38:15;-0.73;62.06
79140;HTU21D;68546;59.142;37.948;2024-02-04T06:40:41;-0.73;61.96
79140;HTU21D;68546;59.142;37.948;2024-02-04T06:43:07;-0.72;61.92
79140;HTU21D;68546;59.142;37.948;2024-02-04T06:45:33;-0.71;61.92
79140;HTU21D;68546;59.142;37.948;2024-02-04T06:48:00;-0.70;62.00
79140;HTU21D;68546;59.142;37.948;2024-02-04T06:50:26;-0.69;61.91
79140;HTU21D;68546;59.142;37.948;2024-02-04T06:52:53;-0.68;61.79
79140;HTU21D;68546;59.142;37.948;2024-02-04T06:55:19;-0.68;61.76
79140;HTU21D;68546;59.142;37.948;2024-02-04T06:57:46;-0.67;61.73
79140;HTU21D;68546;59.142;37.948;2024-02-04T07:00:12;-0.68;61.55
79140;HTU21D;68546;59.142;37.948;2024-02-04T07:02:39;-0.69;61.52
79140;HTU21D;68546;59.142;37.948;2024-02-04T07:05:05;-0.68;61.55
79140;HTU21D;68546;59.142;37.948;2024-02-04T07:07:32;-0.67;61.69
79140;HTU21D;68546;59.142;37.948;2024-02-04T07:09:59;-0.67;61.69
79140;HTU21D;68546;59.142;37.948;2024-02-04T07:12:26;-0.65;61.66
79140;HTU21D;68546;59.142;37.948;2024-02-04T07:14:52;-0.64;61.73
79140;HTU21D;68546;59.142;37.948;2024-02-04T07:17:18;-0.61;61.73
79140;HTU21D;68546;59.142;37.948;2024-02-04T07:19:45;-0.59;61.68
79140;HTU21D;68546;59.142;37.948;2024-02-04T07:22:11;-0.56;61.63
79140;HTU21D;68546;59.142;37.948;2024-02-04T07:24:37;-0.55;61.59
79140;HTU21D;68546;59.142;37.948;2024-02-04T07:27:04;-0.54;61.57
79140;HTU21D;68546;59.142;37.948;2024-02-04T07:29:30;-0.52;61.49
79140;HTU21D;68546;59.142;37.948;2024-02-04T07:31:56;-0.50;61.55
79140;HTU21D;68546;59.142;37.948;2024-02-04T07:34:24;-0.46;61.67
79140;HTU21D;68546;59.142;37.948;2024-02-04T07:36:51;-0.43;61.73
79140;HTU21D;68546;59.142;37.948;2024-02-04T07:39:18;-0.40;61.76
79140;HTU21D;68546;59.142;37.948;2024-02-04T07:41:45;-0.35;61.72
79140;HTU21D;68546;59.142;37.948;2024-02-04T07:44:11;-0.32;61.70
79140;HTU21D;68546;59.142;37.948;2024-02-04T07:46:37;-0.28;61.73
79140;HTU21D;68546;59.142;37.948;2024-02-04T07:49:04;-0.26;61.71
79140;HTU21D;68546;59.142;37.948;2024-02-04T07:51:30;-0.20;61.63
79140;HTU21D;68546;59.142;37.948;2024-02-04T07:53:57;-0.20;61.40
79140;HTU21D;68546;59.142;37.948;2024-02-04T07:56:24;-0.17;61.27
79140;HTU21D;68546;59.142;37.948;2024-02-04T07:58:50;-0.19;61.06
79140;HTU21D;68546;59.142;37.948;2024-02-04T08:01:18;-0.16;61.03
79140;HTU21D;68546;59.142;37.948;2024-02-04T08:03:44;-0.15;60.96
79140;HTU21D;68546;59.142;37.948;2024-02-04T08:06:12;-0.15;60.67
79140;HTU21D;68546;59.142;37.948;2024-02-04T08:08:39;-0.15;60.31
79140;HTU21D;68546;59.142;37.948;2024-02-04T08:11:07;-0.17;60.08
79140;HTU21D;68546;59.142;37.948;2024-02-04T08:13:33;-0.16;60.06
79140;HTU21D;68546;59.142;37.948;2024-02-04T08:15:59;-0.16;60.03
79140;HTU21D;68546;59.142;37.948;2024-02-04T08:18:26;-0.15;59.97
79140;HTU21D;68546;59.142;37.948;2024-02-04T08:20:52;-0.14;60.09
79140;HTU21D;68546;59.142;37.948;2024-02-04T08:23:19;-0.11;60.30
79140;HTU21D;68546;59.142;37.948;2024-02-04T08:25:45;-0.03;60.38
79140;HTU21D;68546;59.142;37.948;2024-02-04T08:28:12;0.03;60.31
79140;HTU21D;68546;59.142;37.948;2024-02-04T08:30:39;0.12;60.53
79140;HTU21D;68546;59.142;37.948;2024-02-04T08:33:05;0.18;60.41
79140;HTU21D;68546;59.142;37.948;2024-02-04T08:35:32;0.24;60.28
79140;HTU21D;68546;59.142;37.948;2024-02-04T08:37:58;0.27;60.21
79140;HTU21D;68546;59.142;37.948;2024-02-04T08:40:24;0.32;60.23
79140;HTU21D;68546;59.142;37.948;2024-02-04T08:42:51;0.36;60.33
79140;HTU21D;68546;59.142;37.948;2024-02-04T08:45:17;0.46;60.44
79140;HTU21D;68546;59.142;37.948;2024-02-04T08:47:43;0.52;58.98
79140;HTU21D;68546;59.142;37.948;2024-02-04T08:50:10;0.60;59.19
79140;HTU21D;68546;59.142;37.948;2024-02-04T08:52:38;0.65;59.05
79140;HTU21D;68546;59.142;37.948;2024-02-04T08:55:05;0.67;58.99
79140;HTU21D;68546;59.142;37.948;2024-02-04T08:57:31;0.72;59.04
79140;HTU21D;68546;59.142;37.948;2024-02-04T08:59:58;0.76;59.03
79140;HTU21D;68546;59.142;37.948;2024-02-04T09:02:24;0.78;59.01
79140;HTU21D;68546;59.142;37.948;2024-02-04T09:04:50;0.86;58.87
79140;HTU21D;68546;59.142;37.948;2024-02-04T09:07:17;0.90;58.03
79140;HTU21D;68546;59.142;37.948;2024-02-04T09:09:43;0.96;58.57
79140;HTU21D;68546;59.142;37.948;2024-02-04T09:12:10;1.03;58.64
79140;HTU21D;68546;59.142;37.948;2024-02-04T09:14:36;1.07;58.16
79140;HTU21D;68546;59.142;37.948;2024-02-04T09:17:04;1.09;57.96
79140;HTU21D;68546;59.142;37.948;2024-02-04T09:19:31;1.11;58.06
79140;HTU21D;68546;59.142;37.948;2024-02-04T09:21:57;1.12;57.93
79140;HTU21D;68546;59.142;37.948;2024-02-04T09:24:24;1.14;58.12
79140;HTU21D;68546;59.142;37.948;2024-02-04T09:26:50;1.19;58.32
79140;HTU21D;68546;59.142;37.948;2024-02-04T09:29:16;1.23;58.36
79140;HTU21D;68546;59.142;37.948;2024-02-04T09:31:43;1.26;58.33
79140;HTU21D;68546;59.142;37.948;2024-02-04T09:34:09;1.29;58.32
79140;HTU21D;68546;59.142;37.948;2024-02-04T09:36:36;1.34;58.22
79140;HTU21D;68546;59.142;37.948;2024-02-04T09:39:02;1.37;58.06
79140;HTU21D;68546;59.142;37.948;2024-02-04T09:41:30;1.40;57.84
79140;HTU21D;68546;59.142;37.948;2024-02-04T09:43:56;1.42;57.48
79140;HTU21D;68546;59.142;37.948;2024-02-04T09:46:25;1.43;57.22
79140;HTU21D;68546;59.142;37.948;2024-02-04T09:48:52;1.43;57.33
79140;HTU21D;68546;59.142;37.948;2024-02-04T09:51:19;1.46;57.39
79140;HTU21D;68546;59.142;37.948;2024-02-04T09:53:51;1.46;57.35
79140;HTU21D;68546;59.142;37.948;2024-02-04T09:56:18;1.46;57.13
79140;HTU21D;68546;59.142;37.948;2024-02-04T09:58:48;1.47;56.08
79140;HTU21D;68546;59.142;37.948;2024-02-04T10:01:19;1.40;55.13
79140;HTU21D;68546;59.142;37.948;2024-02-04T10:03:49;1.36;55.13
79140;HTU21D;68546;59.142;37.948;2024-02-04T10:06:16;1.32;54.54
79140;HTU21D;68546;59.142;37.948;2024-02-04T10:08:43;1.26;54.12
79140;HTU21D;68546;59.142;37.948;2024-02-04T10:11:09;1.22;53.74
79140;HTU21D;68546;59.142;37.948;2024-02-04T10:13:49;1.13;53.59
79140;HTU21D;68546;59.142;37.948;2024-02-04T10:16:17;1.08;53.58
79140;HTU21D;68546;59.142;37.948;2024-02-04T10:18:44;1.01;53.52
79140;HTU21D;68546;59.142;37.948;2024-02-04T10:21:17;0.94;53.68
79140;HTU21D;68546;59.142;37.948;2024-02-04T10:23:46;0.88;53.78
79140;HTU21D;68546;59.142;37.948;2024-02-04T10:26:12;0.81;53.92
79140;HTU21D;68546;59.142;37.948;2024-02-04T10:28:39;0.78;54.26
79140;HTU21D;68546;59.142;37.948;2024-02-04T10:31:10;0.74;54.36
79140;HTU21D;68546;59.142;37.948;2024-02-04T10:33:37;0.71;54.52
79140;HTU21D;68546;59.142;37.948;2024-02-04T10:36:04;0.67;54.66
79140;HTU21D;68546;59.142;37.948;2024-02-04T10:38:32;0.68;54.66
79140;HTU21D;68546;59.142;37.948;2024-02-04T10:41:00;0.65;54.39
79140;HTU21D;68546;59.142;37.948;2024-02-04T10:43:33;0.61;54.11
79140;HTU21D;68546;59.142;37.948;2024-02-04T10:46:09;0.53;54.37
79140;HTU21D;68546;59.142;37.948;2024-02-04T10:48:37;0.49;54.42
79140;HTU21D;68546;59.142;37.948;2024-02-04T10:51:15;0.46;54.59
79140;HTU21D;68546;59.142;37.948;2024-02-04T10:53:42;0.43;54.64
79140;HTU21D;68546;59.142;37.948;2024-02-04T10:56:22;0.40;54.68
79140;HTU21D;68546;59.142;37.948;2024-02-04T10:58:52;0.34;54.76
79140;HTU21D;68546;59.142;37.948;2024-02-04T11:01:18;0.32;55.10
79140;HTU21D;68546;59.142;37.948;2024-02-04T11:03:46;0.31;55.27
79140;HTU21D;68546;59.142;37.948;2024-02-04T11:06:13;0.30;55.31
79140;HTU21D;68546;59.142;37.948;2024-02-04T11:08:40;0.30;55.31
79140;HTU21D;68546;59.142;37.948;2024-02-04T11:11:07;0.30;55.43
79140;HTU21D;68546;59.142;37.948;2024-02-04T11:13:34;0.29;55.58
79140;HTU21D;68546;59.142;37.948;2024-02-04T11:16:06;0.30;55.82
79140;HTU21D;68546;59.142;37.948;2024-02-04T11:18:54;0.34;56.10
79140;HTU21D;68546;59.142;37.948;2024-02-04T11:24:43;0.39;56.47
79140;HTU21D;68546;59.142;37.948;2024-02-04T11:27:13;0.44;56.71
79140;HTU21D;68546;59.142;37.948;2024-02-04T11:29:40;0.49;56.58
79140;HTU21D;68546;59.142;37.948;2024-02-04T11:32:06;0.52;56.49
79140;HTU21D;68546;59.142;37.948;2024-02-04T11:34:33;0.55;56.59
79140;HTU21D;68546;59.142;37.948;2024-02-04T11:37:00;0.60;56.60
79140;HTU21D;68546;59.142;37.948;2024-02-04T11:39:26;0.64;56.52
79140;HTU21D;68546;59.142;37.948;2024-02-04T11:41:53;0.67;55.68
79140;HTU21D;68546;59.142;37.948;2024-02-04T11:44:24;0.66;55.35
79140;HTU21D;68546;59.142;37.948;2024-02-04T11:46:51;0.64;55.07
79140;HTU21D;68546;59.142;37.948;2024-02-04T11:49:18;0.63;55.20
79140;HTU21D;68546;59.142;37.948;2024-02-04T11:51:51;0.62;54.87
79140;HTU21D;68546;59.142;37.948;2024-02-04T11:54:19;0.60;54.73
79140;HTU21D;68546;59.142;37.948;2024-02-04T11:56:49;0.55;54.77
79140;HTU21D;68546;59.142;37.948;2024-02-04T11:59:20;0.53;54.83
79140;HTU21D;68546;59.142;37.948;2024-02-04T12:01:56;0.52;54.56
79140;HTU21D;68546;59.142;37.948;2024-02-04T12:04:23;0.51;54.62
79140;HTU21D;68546;59.142;37.948;2024-02-04T12:06:53;0.49;54.65
79140;HTU21D;68546;59.142;37.948;2024-02-04T12:09:20;0.46;54.57
79140;HTU21D;68546;59.142;37.948;2024-02-04T12:11:48;0.43;54.44
79140;HTU21D;68546;59.142;37.948;2024-02-04T12:14:15;0.38;54.35
79140;HTU21D;68546;59.142;37.948;2024-02-04T12:16:44;0.34;54.58
79140;HTU21D;68546;59.142;37.948;2024-02-04T12:19:11;0.31;54.87
79140;HTU21D;68546;59.142;37.948;2024-02-04T12:21:38;0.31;55.28
79140;HTU21D;68546;59.142;37.948;2024-02-04T12:24:05;0.32;55.71
79140;HTU21D;68546;59.142;37.948;2024-02-04T12:26:31;0.34;55.48
79140;HTU21D;68546;59.142;37.948;2024-02-04T12:28:58;0.35;55.51
79140;HTU21D;68546;59.142;37.948;2024-02-04T12:31:26;0.36;55.20
79140;HTU21D;68546;59.142;37.948;2024-02-04T12:33:58;0.34;55.05
79140;HTU21D;68546;59.142;37.948;2024-02-04T12:36:28;0.34;55.19
79140;HTU21D;68546;59.142;37.948;2024-02-04T12:38:56;0.33;54.91
79140;HTU21D;68546;59.142;37.948;2024-02-04T12:41:25;0.32;54.88
79140;HTU21D;68546;59.142;37.948;2024-02-04T12:43:57;0.31;54.88
79140;HTU21D;68546;59.142;37.948;2024-02-04T12:46:28;0.24;54.97
79140;HTU21D;68546;59.142;37.948;2024-02-04T12:48:56;0.23;55.33
79140;HTU21D;68546;59.142;37.948;2024-02-04T12:51:24;0.22;55.61
79140;HTU21D;68546;59.142;37.948;2024-02-04T12:54:08;0.23;55.68
79140;HTU21D;68546;59.142;37.948;2024-02-04T12:56:54;0.23;55.26
79140;HTU21D;68546;59.142;37.948;2024-02-04T12:59:31;0.19;55.13
79140;HTU21D;68546;59.142;37.948;2024-02-04T13:01:59;0.16;55.28
79140;HTU21D;68546;59.142;37.948;2024-02-04T13:04:36;0.14;55.57
79140;HTU21D;68546;59.142;37.948;2024-02-04T13:07:12;0.12;55.65
79140;HTU21D;68546;59.142;37.948;2024-02-04T13:09:58;0.10;55.37
79140;HTU21D;68546;59.142;37.948;2024-02-04T13:12:25;0.07;55.29
79140;HTU21D;68546;59.142;37.948;2024-02-04T13:14:51;0.04;55.35
79140;HTU21D;68546;59.142;37.948;2024-02-04T13:17:18;-0.02;55.42
79140;HTU21D;68546;59.142;37.948;2024-02-04T13:19:44;-0.05;55.67
79140;HTU21D;68546;59.142;37.948;2024-02-04T13:22:11;-0.07;55.74
79140;HTU21D;68546;59.142;37.948;2024-02-04T13:24:40;-0.12;55.74
79140;HTU21D;68546;59.142;37.948;2024-02-04T13:27:06;-0.15;55.94
79140;HTU21D;68546;59.142;37.948;2024-02-04T13:29:37;-0.16;56.14
79140;HTU21D;68546;59.142;37.948;2024-02-04T13:32:05;-0.20;56.25
79140;HTU21D;68546;59.142;37.948;2024-02-04T13:34:32;-0.20;56.38
79140;HTU21D;68546;59.142;37.948;2024-02-04T13:36:58;-0.24;56.55
79140;HTU21D;68546;59.142;37.948;2024-02-04T13:39:25;-0.24;56.67
79140;HTU21D;68546;59.142;37.948;2024-02-04T13:41:51;-0.24;56.86
79140;HTU21D;68546;59.142;37.948;2024-02-04T13:44:17;-0.25;56.71
79140;HTU21D;68546;59.142;37.948;2024-02-04T13:46:44;-0.29;56.80
79140;HTU21D;68546;59.142;37.948;2024-02-04T13:49:10;-0.28;57.13
79140;HTU21D;68546;59.142;37.948;2024-02-04T13:51:38;-0.29;57.16
79140;HTU21D;68546;59.142;37.948;2024-02-04T13:54:04;-0.31;57.38
79140;HTU21D;68546;59.142;37.948;2024-02-04T13:56:30;-0.31;57.41
79140;HTU21D;68546;59.142;37.948;2024-02-04T13:58:59;-0.32;57.58
79140;HTU21D;68546;59.142;37.948;2024-02-04T14:01:25;-0.31;57.67
79140;HTU21D;68546;59.142;37.948;2024-02-04T14:03:52;-0.30;57.81
79140;HTU21D;68546;59.142;37.948;2024-02-04T14:06:18;-0.28;57.88
79140;HTU21D;68546;59.142;37.948;2024-02-04T14:08:45;-0.26;57.92
79140;HTU21D;68546;59.142;37.948;2024-02-04T14:11:11;-0.25;57.81
79140;HTU21D;68546;59.142;37.948;2024-02-04T14:13:38;-0.25;57.77
79140;HTU21D;68546;59.142;37.948;2024-02-04T14:16:05;-0.25;57.80
79140;HTU21D;68546;59.142;37.948;2024-02-04T14:18:32;-0.25;57.70
79140;HTU21D;68546;59.142;37.948;2024-02-04T14:20:59;-0.26;57.75
79140;HTU21D;68546;59.142;37.948;2024-02-04T14:23:25;-0.28;57.72
79140;HTU21D;68546;59.142;37.948;2024-02-04T14:25:51;-0.31;57.63
79140;HTU21D;68546;59.142;37.948;2024-02-04T14:28:19;-0.34;57.72
79140;HTU21D;68546;59.142;37.948;2024-02-04T14:31:11;-0.36;57.91
79140;HTU21D;68546;59.142;37.948;2024-02-04T14:33:38;-0.38;58.03
79140;HTU21D;68546;59.142;37.948;2024-02-04T14:36:08;-0.38;58.26
79140;HTU21D;68546;59.142;37.948;2024-02-04T14:38:36;-0.38;58.44
79140;HTU21D;68546;59.142;37.948;2024-02-04T14:41:05;-0.36;58.66
79140;HTU21D;68546;59.142;37.948;2024-02-04T14:43:31;-0.35;58.70
79140;HTU21D;68546;59.142;37.948;2024-02-04T14:45:58;-0.30;58.82
79140;HTU21D;68546;59.142;37.948;2024-02-04T14:48:25;-0.29;58.93
79140;HTU21D;68546;59.142;37.948;2024-02-04T14:50:51;-0.27;59.00
79140;HTU21D;68546;59.142;37.948;2024-02-04T14:53:18;-0.23;59.09
79140;HTU21D;68546;59.142;37.948;2024-02-04T14:55:44;-0.20;59.16
79140;HTU21D;68546;59.142;37.948;2024-02-04T14:58:11;-0.16;59.12
79140;HTU21D;68546;59.142;37.948;2024-02-04T15:00:37;-0.14;59.09
79140;HTU21D;68546;59.142;37.948;2024-02-04T15:03:04;-0.11;59.20
79140;HTU21D;68546;59.142;37.948;2024-02-04T15:05:31;-0.08;59.23
79140;HTU21D;68546;59.142;37.948;2024-02-04T15:07:57;-0.07;59.09
79140;HTU21D;68546;59.142;37.948;2024-02-04T15:10:24;-0.05;58.95
79140;HTU21D;68546;59.142;37.948;2024-02-04T15:12:50;-0.02;58.66